Time;durP1;ratioP1;P1;durP2;ratioP2;P2;SDS_P1;SDS_P2;PMS_P1;PMS_P2;Temp;Humidity;BMP_temperature;BMP_pressure;BME280_temperature;BME280_humidity;BME280_pressure;Samples;Min_cycle;Max_cycle;Signal;HPM_P1;HPM_P2
2023/09/15 00:00:17;;;;;;;10.27;2.92;;;10.20;99.90;;;;;;5157921;27;20058;-27
2023/09/15 00:02:43;;;;;;;9.32;3.28;;;10.20;99.90;;;;;;5157050;27;20099;-27
2023/09/15 00:05:12;;;;;;;5.18;2.28;;;10.20;99.90;;;;;;5157246;27;20051;-27
2023/09/15 00:07:38;;;;;;;8.52;2.78;;;10.10;99.90;;;;;;5157197;27;20158;-27
2023/09/15 00:10:11;;;;;;;10.25;3.28;;;10.10;99.90;;;;;;5158008;27;20042;-28
2023/09/15 00:12:38;;;;;;;8.93;2.88;;;10.10;99.90;;;;;;5156726;27;20491;-27
2023/09/15 00:15:07;;;;;;;7.15;2.42;;;10.00;99.90;;;;;;5158059;27;20047;-27
2023/09/15 00:17:35;;;;;;;7.20;2.28;;;10.00;99.90;;;;;;5156553;27;20078;-28
2023/09/15 00:20:04;;;;;;;8.10;3.20;;;9.90;99.90;;;;;;5157656;27;20047;-27
2023/09/15 00:22:30;;;;;;;8.10;2.80;;;10.00;99.90;;;;;;5157077;27;20043;-27
2023/09/15 00:24:56;;;;;;;6.95;2.28;;;10.00;99.90;;;;;;5157541;27;20050;-27
2023/09/15 00:27:22;;;;;;;8.35;2.80;;;9.90;99.90;;;;;;5158361;27;20047;-27
2023/09/15 00:29:47;;;;;;;6.15;2.55;;;9.90;99.90;;;;;;5157466;27;20515;-27
2023/09/15 00:32:13;;;;;;;6.25;3.13;;;10.00;99.90;;;;;;5157305;27;20050;-27
2023/09/15 00:34:38;;;;;;;9.05;2.53;;;9.90;99.90;;;;;;5156757;27;20114;-28
2023/09/15 00:37:04;;;;;;;9.60;3.20;;;9.90;99.90;;;;;;5157305;27;20051;-27
2023/09/15 00:39:30;;;;;;;7.93;2.58;;;9.90;99.90;;;;;;5157250;27;20093;-27
2023/09/15 00:41:55;;;;;;;6.72;2.95;;;9.90;99.90;;;;;;5157294;27;20088;-27
2023/09/15 00:44:21;;;;;;;6.22;2.35;;;9.80;99.90;;;;;;5157183;27;20130;-27
2023/09/15 00:46:47;;;;;;;11.55;3.55;;;9.80;99.90;;;;;;5139679;27;20426;-27
2023/09/15 00:49:13;;;;;;;9.15;2.95;;;9.80;99.90;;;;;;5155844;27;20043;-27
2023/09/15 00:51:39;;;;;;;8.25;2.80;;;9.70;99.90;;;;;;5157022;27;20130;-27
2023/09/15 00:54:07;;;;;;;4.80;2.50;;;9.70;99.90;;;;;;5156871;27;20495;-27
2023/09/15 00:56:34;;;;;;;8.30;3.15;;;9.70;99.90;;;;;;5157020;27;20112;-27
2023/09/15 00:59:00;;;;;;;5.55;2.25;;;9.70;99.90;;;;;;5157462;27;20107;-27
2023/09/15 01:01:27;;;;;;;5.63;2.47;;;9.70;99.90;;;;;;5157017;27;20058;-27
2023/09/15 01:03:53;;;;;;;8.38;2.97;;;9.60;99.90;;;;;;5156755;27;20045;-27
2023/09/15 01:06:22;;;;;;;5.70;3.00;;;9.60;99.90;;;;;;5157318;27;20051;-28
2023/09/15 01:08:48;;;;;;;4.38;2.63;;;9.60;99.90;;;;;;5155960;27;20098;-27
2023/09/15 01:11:14;;;;;;;7.75;3.03;;;9.60;99.90;;;;;;5155793;27;20046;-27
2023/09/15 01:13:39;;;;;;;7.47;2.40;;;9.60;99.90;;;;;;5156190;27;20045;-27
2023/09/15 01:16:15;;;;;;;8.43;2.80;;;9.60;99.90;;;;;;5155823;27;20042;-27
2023/09/15 01:18:56;;;;;;;9.25;3.40;;;9.60;99.90;;;;;;5156401;27;20046;-27
2023/09/15 01:21:46;;;;;;;7.40;2.60;;;9.60;99.90;;;;;;5155420;27;20102;-27
2023/09/15 01:24:20;;;;;;;7.40;2.60;;;9.50;99.90;;;;;;5157217;27;20081;-27
2023/09/15 01:27:25;;;;;;;9.20;3.00;;;9.50;99.90;;;;;;5156415;27;20098;-27
2023/09/15 01:29:56;;;;;;;6.68;2.50;;;9.50;99.90;;;;;;5155664;27;20050;-27
2023/09/15 01:32:22;;;;;;;6.93;3.08;;;9.40;99.90;;;;;;5155235;27;20480;-27
2023/09/15 01:34:50;;;;;;;9.18;3.53;;;9.40;99.90;;;;;;5157022;27;20125;-27
2023/09/15 01:37:16;;;;;;;7.97;3.20;;;9.40;99.90;;;;;;5156697;27;20046;-27
2023/09/15 01:39:43;;;;;;;10.32;3.25;;;9.40;99.90;;;;;;5156095;27;20054;-27
2023/09/15 01:42:08;;;;;;;9.18;3.65;;;9.30;99.90;;;;;;5156085;27;20053;-27
2023/09/15 01:44:34;;;;;;;7.35;3.22;;;9.40;99.90;;;;;;5155050;27;20042;-27
2023/09/15 01:47:00;;;;;;;5.00;2.63;;;9.30;99.90;;;;;;5155615;27;20050;-27
2023/09/15 01:49:27;;;;;;;8.77;2.85;;;9.30;99.90;;;;;;5154805;27;20043;-27
2023/09/15 01:51:55;;;;;;;7.32;2.97;;;9.30;99.90;;;;;;5155894;27;20073;-27
2023/09/15 01:54:21;;;;;;;8.70;3.33;;;9.20;99.90;;;;;;5155827;27;20042;-27
2023/09/15 01:56:50;;;;;;;8.65;3.05;;;9.20;99.90;;;;;;5154842;27;20088;-27
2023/09/15 01:59:16;;;;;;;7.70;2.70;;;9.20;99.90;;;;;;5155673;27;20038;-27
2023/09/15 02:01:42;;;;;;;12.65;3.17;;;9.10;99.90;;;;;;5155723;27;20103;-27
2023/09/15 02:04:09;;;;;;;10.80;3.13;;;9.10;99.90;;;;;;5155705;27;20555;-27
2023/09/15 02:06:35;;;;;;;8.35;2.80;;;9.00;99.90;;;;;;5155675;27;20125;-27
2023/09/15 02:09:01;;;;;;;9.40;3.17;;;9.00;99.90;;;;;;5155835;27;20117;-27
2023/09/15 02:11:26;;;;;;;8.20;3.70;;;9.00;99.90;;;;;;5154580;27;20082;-27
2023/09/15 02:13:52;;;;;;;5.38;2.67;;;9.00;99.90;;;;;;5154277;27;20039;-27
2023/09/15 02:16:18;;;;;;;8.48;3.42;;;8.90;99.90;;;;;;5155507;27;20047;-27
2023/09/15 02:18:43;;;;;;;11.90;4.07;;;8.90;99.90;;;;;;5155508;27;20074;-27
2023/09/15 02:21:09;;;;;;;10.60;3.75;;;8.90;99.90;;;;;;5155488;27;20437;-27
2023/09/15 02:23:35;;;;;;;11.57;4.00;;;8.90;99.90;;;;;;5137098;27;20082;-27
2023/09/15 02:26:05;;;;;;;8.43;3.70;;;8.90;99.90;;;;;;5155418;27;20067;-27
2023/09/15 02:28:31;;;;;;;6.25;3.40;;;8.90;99.90;;;;;;5154189;27;20511;-27
2023/09/15 02:30:57;;;;;;;10.77;3.63;;;8.90;99.90;;;;;;5155384;27;20051;-27
2023/09/15 02:33:23;;;;;;;9.70;3.50;;;9.00;99.90;;;;;;5155295;27;20049;-27
2023/09/15 02:35:50;;;;;;;7.25;3.47;;;8.90;99.90;;;;;;5157831;27;20369;-26
2023/09/15 02:38:16;;;;;;;8.52;3.88;;;8.90;99.90;;;;;;5159663;27;20057;-27
2023/09/15 02:40:42;;;;;;;7.35;3.90;;;8.90;99.90;;;;;;5159236;27;20122;-27
2023/09/15 02:43:10;;;;;;;7.00;3.63;;;8.90;99.90;;;;;;5159535;27;20469;-27
2023/09/15 02:45:37;;;;;;;7.80;4.43;;;8.80;99.90;;;;;;5141199;27;20129;-27
2023/09/15 02:48:03;;;;;;;14.20;4.63;;;8.90;99.90;;;;;;5158160;27;20043;-27
2023/09/15 02:50:30;;;;;;;8.73;3.58;;;8.90;99.90;;;;;;5159388;27;20054;-26
2023/09/15 02:52:55;;;;;;;8.25;3.95;;;8.80;99.90;;;;;;5159272;27;20042;-27
2023/09/15 02:55:21;;;;;;;7.18;3.53;;;8.80;99.90;;;;;;5159275;27;20116;-27
2023/09/15 02:57:51;;;;;;;7.88;3.80;;;8.80;99.90;;;;;;5159247;27;20043;-26
2023/09/15 03:00:19;;;;;;;8.07;3.72;;;8.70;99.90;;;;;;5140625;27;20078;-27
2023/09/15 03:02:45;;;;;;;7.65;3.53;;;8.80;99.90;;;;;;5141703;27;20133;-27
2023/09/15 03:05:12;;;;;;;6.15;3.38;;;8.80;99.90;;;;;;5157828;27;20083;-27
2023/09/15 03:07:39;;;;;;;8.13;3.67;;;8.70;99.90;;;;;;5157925;27;20073;-27
2023/09/15 03:10:09;;;;;;;7.68;3.33;;;8.70;99.90;;;;;;5157853;27;20042;-27
2023/09/15 03:12:35;;;;;;;9.05;3.70;;;8.70;99.90;;;;;;5158981;27;20496;-27
2023/09/15 03:15:08;;;;;;;7.90;4.10;;;8.70;99.90;;;;;;5158345;27;20050;-26
2023/09/15 03:17:37;;;;;;;10.00;4.07;;;8.70;99.90;;;;;;5158846;27;20050;-27
2023/09/15 03:20:13;;;;;;;7.38;3.50;;;8.70;99.90;;;;;;5158821;27;20039;-27
2023/09/15 03:22:42;;;;;;;10.38;3.65;;;8.60;99.90;;;;;;5158833;27;20078;-26
2023/09/15 03:25:08;;;;;;;8.50;3.80;;;8.60;99.90;;;;;;5158772;27;20051;-27
2023/09/15 03:27:34;;;;;;;7.45;3.47;;;8.70;99.90;;;;;;5158784;27;20082;-26
2023/09/15 03:30:00;;;;;;;6.60;3.70;;;8.60;99.90;;;;;;5158887;27;20043;-26
2023/09/15 03:32:26;;;;;;;9.98;3.83;;;8.70;99.90;;;;;;5157905;27;20179;-26
2023/09/15 03:34:52;;;;;;;9.20;4.53;;;8.60;99.90;;;;;;5157308;27;20388;-26
2023/09/15 03:37:17;;;;;;;7.43;4.03;;;8.70;99.90;;;;;;5158510;27;20047;-26
2023/09/15 03:39:43;;;;;;;7.50;3.65;;;8.70;99.90;;;;;;5158415;27;20388;-27
2023/09/15 03:42:09;;;;;;;10.75;4.07;;;8.70;99.90;;;;;;5157285;27;20047;-27
2023/09/15 03:44:35;;;;;;;8.73;3.72;;;8.70;99.90;;;;;;5140015;27;20054;-26
2023/09/15 03:47:00;;;;;;;10.23;3.88;;;8.70;99.90;;;;;;5139843;27;20103;-27
2023/09/15 03:49:26;;;;;;;6.75;3.80;;;8.70;99.90;;;;;;5158202;27;20043;-27
2023/09/15 03:51:52;;;;;;;8.77;3.60;;;8.70;99.90;;;;;;5157536;27;20491;-26
2023/09/15 03:54:18;;;;;;;10.18;3.70;;;8.60;99.90;;;;;;5139663;27;20046;-27
2023/09/15 03:56:44;;;;;;;6.30;3.53;;;8.70;99.90;;;;;;5156927;27;20078;-26
2023/09/15 03:59:10;;;;;;;19.55;4.22;;;8.60;99.90;;;;;;5158668;27;20142;-27
2023/09/15 04:01:35;;;;;;;10.60;3.60;;;8.50;99.90;;;;;;5158188;27;20055;-26
2023/09/15 04:04:02;;;;;;;9.55;3.40;;;8.50;99.90;;;;;;5157967;27;20144;-26
2023/09/15 04:06:28;;;;;;;9.20;3.38;;;8.50;99.90;;;;;;5157899;27;20058;-26
2023/09/15 04:08:55;;;;;;;8.05;3.90;;;8.40;99.90;;;;;;5157857;27;20046;-27
2023/09/15 04:11:20;;;;;;;8.00;3.97;;;8.40;99.90;;;;;;5157880;27;20167;-27
2023/09/15 04:13:46;;;;;;;10.20;3.90;;;8.40;99.90;;;;;;5157784;27;20500;-27
2023/09/15 04:16:12;;;;;;;10.20;4.03;;;8.40;99.90;;;;;;5157766;27;20041;-26
2023/09/15 04:18:37;;;;;;;10.57;4.38;;;8.40;99.90;;;;;;5158284;27;20280;-26
2023/09/15 04:21:04;;;;;;;8.25;4.13;;;8.30;99.90;;;;;;5158463;27;20050;-27
2023/09/15 04:23:30;;;;;;;8.75;3.72;;;8.30;99.90;;;;;;5158175;27;20099;-27
2023/09/15 04:25:56;;;;;;;7.50;4.10;;;8.40;99.90;;;;;;5157620;27;20069;-26
2023/09/15 04:28:22;;;;;;;8.48;4.32;;;8.40;99.90;;;;;;5156303;27;20476;-26
2023/09/15 04:30:48;;;;;;;10.80;4.35;;;8.40;99.90;;;;;;5157165;27;20078;-26
2023/09/15 04:33:14;;;;;;;7.53;4.10;;;8.40;99.90;;;;;;5156145;27;20043;-27
2023/09/15 04:35:39;;;;;;;7.43;4.07;;;8.40;99.90;;;;;;5157930;27;20510;-27
2023/09/15 04:38:06;;;;;;;9.38;5.28;;;8.40;99.90;;;;;;5157364;27;20046;-27
2023/09/15 04:40:32;;;;;;;8.98;4.03;;;8.40;99.90;;;;;;5156333;27;20450;-26
2023/09/15 04:42:59;;;;;;;7.35;4.70;;;8.40;99.90;;;;;;5158061;27;20031;-27
2023/09/15 04:45:25;;;;;;;9.40;4.75;;;8.40;99.90;;;;;;5157177;27;20095;-26
2023/09/15 04:47:51;;;;;;;10.90;4.47;;;8.40;99.90;;;;;;5157040;27;20089;-26
2023/09/15 04:50:17;;;;;;;10.00;4.82;;;8.50;99.90;;;;;;5157048;27;20081;-27
2023/09/15 04:52:42;;;;;;;11.15;5.43;;;8.50;99.90;;;;;;5156991;27;20472;-27
2023/09/15 04:55:08;;;;;;;15.43;5.68;;;8.50;99.90;;;;;;5156697;27;20062;-27
2023/09/15 04:57:34;;;;;;;9.68;4.55;;;8.40;99.90;;;;;;5155782;27;20099;-27
2023/09/15 05:00:11;;;;;;;11.32;4.57;;;8.40;99.90;;;;;;5157443;27;20388;-27
2023/09/15 05:02:37;;;;;;;10.88;5.28;;;8.40;99.90;;;;;;5156716;27;20114;-26
2023/09/15 05:05:03;;;;;;;10.27;4.90;;;8.30;99.90;;;;;;5138564;27;20133;-27
2023/09/15 05:07:29;;;;;;;11.55;5.25;;;8.30;99.90;;;;;;5156628;27;20050;-27
2023/09/15 05:09:55;;;;;;;14.63;5.25;;;8.30;99.90;;;;;;5155166;27;20557;-27
2023/09/15 05:12:20;;;;;;;12.63;4.95;;;8.30;99.90;;;;;;5156232;27;20046;-26
2023/09/15 05:14:46;;;;;;;8.52;5.15;;;8.30;99.90;;;;;;5156244;27;20051;-27
2023/09/15 05:17:12;;;;;;;8.77;5.45;;;8.30;99.90;;;;;;5156584;27;20042;-26
2023/09/15 05:19:37;;;;;;;8.38;4.72;;;8.30;99.90;;;;;;5156443;27;20047;-26
2023/09/15 05:22:03;;;;;;;9.02;5.55;;;8.30;99.90;;;;;;5156712;27;20042;-27
2023/09/15 05:24:29;;;;;;;10.55;6.07;;;8.30;99.90;;;;;;5156367;27;20067;-27
2023/09/15 05:26:55;;;;;;;13.30;5.93;;;8.30;99.90;;;;;;5155191;27;20042;-27
2023/09/15 05:29:20;;;;;;;8.25;5.68;;;8.30;99.90;;;;;;5157192;27;20043;-27
2023/09/15 05:31:46;;;;;;;11.20;5.50;;;8.30;99.90;;;;;;5156923;27;20522;-28
2023/09/15 05:34:12;;;;;;;9.18;5.70;;;8.40;99.90;;;;;;5156080;27;20125;-27
2023/09/15 05:36:38;;;;;;;12.65;6.78;;;8.40;99.90;;;;;;5156129;27;20054;-27
2023/09/15 05:39:04;;;;;;;12.50;5.85;;;8.50;99.90;;;;;;5156199;27;20047;-27
2023/09/15 05:41:30;;;;;;;15.30;6.60;;;8.60;99.90;;;;;;5155363;27;20373;-26
2023/09/15 05:43:55;;;;;;;7.70;5.82;;;8.70;99.90;;;;;;5156051;27;20045;-27
2023/09/15 05:46:21;;;;;;;13.88;7.68;;;8.70;99.90;;;;;;5156026;27;20059;-27
2023/09/15 05:48:47;;;;;;;12.07;7.25;;;8.80;99.90;;;;;;5156256;27;20437;-27
2023/09/15 05:51:12;;;;;;;11.30;7.28;;;8.90;99.90;;;;;;5155930;27;20443;-27
2023/09/15 05:53:38;;;;;;;13.13;6.57;;;9.00;99.90;;;;;;5156083;27;20046;-27
2023/09/15 05:56:04;;;;;;;15.07;8.43;;;9.10;99.90;;;;;;5154921;27;20051;-27
2023/09/15 05:58:30;;;;;;;15.38;6.20;;;9.20;99.90;;;;;;5154648;27;20095;-27
2023/09/15 06:00:57;;;;;;;9.25;6.53;;;9.30;99.90;;;;;;5154325;27;20061;-27
2023/09/15 06:03:24;;;;;;;14.07;6.50;;;9.30;99.90;;;;;;5154591;27;20042;-27
2023/09/15 06:05:50;;;;;;;14.07;6.57;;;9.30;99.90;;;;;;5154479;27;20048;-27
2023/09/15 06:08:18;;;;;;;12.18;6.95;;;9.50;99.90;;;;;;5156484;27;20121;-27
2023/09/15 06:10:43;;;;;;;11.10;7.07;;;9.50;99.90;;;;;;5154649;27;20099;-26
2023/09/15 06:13:09;;;;;;;10.40;5.97;;;9.60;99.90;;;;;;5154260;27;20129;-26
2023/09/15 06:15:35;;;;;;;12.32;6.07;;;9.70;99.90;;;;;;5156088;27;20042;-27
2023/09/15 06:18:01;;;;;;;10.75;6.55;;;9.80;99.90;;;;;;5154273;27;20049;-27
2023/09/15 06:20:30;;;;;;;9.48;5.63;;;9.90;99.90;;;;;;5155435;27;20175;-27
2023/09/15 06:22:56;;;;;;;12.18;6.70;;;10.00;99.90;;;;;;5155470;27;20046;-27
2023/09/15 06:25:22;;;;;;;14.32;5.93;;;10.10;99.90;;;;;;5155152;27;20480;-27
2023/09/15 06:27:49;;;;;;;9.30;6.22;;;10.20;99.90;;;;;;5155403;27;20047;-27
2023/09/15 06:30:15;;;;;;;13.30;6.13;;;10.20;99.90;;;;;;5155455;27;20054;-27
2023/09/15 06:32:40;;;;;;;13.48;6.05;;;10.30;99.90;;;;;;5154129;27;20039;-27
2023/09/15 06:35:10;;;;;;;14.25;6.35;;;10.40;99.90;;;;;;5154338;27;20493;-27
2023/09/15 06:37:36;;;;;;;9.95;5.65;;;10.40;99.90;;;;;;5154312;27;20476;-27
2023/09/15 06:40:03;;;;;;;9.65;5.78;;;10.50;99.90;;;;;;5155277;27;20058;-27
2023/09/15 06:42:29;;;;;;;12.90;6.22;;;10.60;99.90;;;;;;5155138;27;20373;-27
2023/09/15 06:44:57;;;;;;;14.02;7.20;;;10.70;99.90;;;;;;5155219;27;20107;-27
2023/09/15 06:47:23;;;;;;;9.75;6.00;;;10.80;99.90;;;;;;5155223;27;20125;-27
2023/09/15 06:49:48;;;;;;;15.00;6.10;;;10.90;99.90;;;;;;5155028;27;20134;-27
2023/09/15 06:52:14;;;;;;;8.57;5.35;;;11.00;99.90;;;;;;5154135;27;20099;-27
2023/09/15 06:54:40;;;;;;;10.57;5.72;;;11.10;99.90;;;;;;5155178;27;20125;-27
2023/09/15 06:57:05;;;;;;;11.43;5.30;;;11.20;99.90;;;;;;5153963;27;20042;-27
2023/09/15 06:59:31;;;;;;;9.52;5.30;;;11.30;99.90;;;;;;5155680;27;20126;-27
2023/09/15 07:01:59;;;;;;;10.93;4.88;;;11.50;99.90;;;;;;5156058;27;20065;-27
2023/09/15 07:04:25;;;;;;;10.38;5.03;;;11.60;99.90;;;;;;5154769;27;20412;-27
2023/09/15 07:06:51;;;;;;;8.45;4.95;;;11.70;99.90;;;;;;5155036;27;20094;-27
2023/09/15 07:09:17;;;;;;;7.60;5.15;;;11.80;99.90;;;;;;5155077;27;20480;-27
2023/09/15 07:11:42;;;;;;;11.15;5.55;;;11.90;99.90;;;;;;5155525;27;20039;-27
2023/09/15 07:14:08;;;;;;;9.30;6.07;;;12.00;99.90;;;;;;5154021;27;20061;-27
2023/09/15 07:16:34;;;;;;;9.73;4.50;;;12.10;99.90;;;;;;5153996;27;20384;-27
2023/09/15 07:18:59;;;;;;;11.98;5.03;;;12.30;99.90;;;;;;5154930;27;20078;-27
2023/09/15 07:21:25;;;;;;;6.53;4.10;;;12.40;99.90;;;;;;5156486;27;20122;-27
2023/09/15 07:23:55;;;;;;;8.20;4.85;;;12.50;99.90;;;;;;5159293;27;20038;-27
2023/09/15 07:26:21;;;;;;;12.93;4.80;;;12.60;99.90;;;;;;5158758;27;20078;-27
2023/09/15 07:28:47;;;;;;;7.55;4.55;;;12.70;99.90;;;;;;5158717;27;20049;-27
2023/09/15 07:31:17;;;;;;;7.25;4.07;;;12.80;99.90;;;;;;5158403;27;20046;-27
2023/09/15 07:33:45;;;;;;;9.90;4.72;;;12.90;99.90;;;;;;5157427;27;20035;-27
2023/09/15 07:36:11;;;;;;;7.35;4.60;;;13.10;99.90;;;;;;5158503;27;20042;-27
2023/09/15 07:38:36;;;;;;;10.00;3.83;;;13.20;99.90;;;;;;5157214;27;20073;-27
2023/09/15 07:41:02;;;;;;;7.90;4.03;;;13.30;99.90;;;;;;5159044;27;20061;-27
2023/09/15 07:43:28;;;;;;;7.63;4.28;;;13.40;99.90;;;;;;5159266;27;20095;-27
2023/09/15 07:45:54;;;;;;;9.80;3.70;;;13.50;99.90;;;;;;5158552;27;20491;-27
2023/09/15 07:48:21;;;;;;;10.13;3.65;;;13.60;99.90;;;;;;5157248;27;20039;-27
2023/09/15 07:50:47;;;;;;;13.70;4.45;;;13.70;99.90;;;;;;5158017;27;20519;-27
2023/09/15 07:53:13;;;;;;;8.20;3.50;;;13.90;99.90;;;;;;5158991;27;20167;-27
2023/09/15 07:55:39;;;;;;;5.57;3.20;;;14.00;99.90;;;;;;5158037;27;20078;-27
2023/09/15 07:58:05;;;;;;;8.82;3.70;;;14.10;99.90;;;;;;5158082;27;20050;-27
2023/09/15 08:00:31;;;;;;;8.77;3.70;;;14.10;99.90;;;;;;5157194;27;20049;-27
2023/09/15 08:02:56;;;;;;;6.97;3.42;;;14.30;99.90;;;;;;5159014;27;20142;-27
2023/09/15 08:05:23;;;;;;;5.78;3.00;;;14.30;99.90;;;;;;5156839;27;20089;-27
2023/09/15 08:07:49;;;;;;;11.18;3.33;;;14.40;99.90;;;;;;5157938;27;20613;-27
2023/09/15 08:10:18;;;;;;;11.82;3.88;;;14.50;99.90;;;;;;5157607;27;20487;-27
2023/09/15 08:12:44;;;;;;;7.78;2.90;;;14.70;99.90;;;;;;5157805;27;20488;-27
2023/09/15 08:15:10;;;;;;;6.10;2.70;;;14.80;99.90;;;;;;5157813;27;20083;-27
2023/09/15 08:17:36;;;;;;;6.80;2.72;;;14.80;99.90;;;;;;5157352;27;20091;-29
2023/09/15 08:20:02;;;;;;;6.45;3.13;;;14.90;99.90;;;;;;5156478;27;20047;-27
2023/09/15 08:22:30;;;;;;;8.98;3.00;;;15.00;78.00;;;;;;5157867;27;20442;-27
2023/09/15 08:24:58;;;;;;;9.05;2.97;;;15.10;87.70;;;;;;5157267;27;20500;-28
2023/09/15 08:27:25;;;;;;;6.00;3.10;;;15.20;20.80;;;;;;5157547;27;20057;-27
2023/09/15 08:29:51;;;;;;;7.57;3.00;;;15.30;41.60;;;;;;5158345;27;20039;-27
2023/09/15 08:32:17;;;;;;;7.25;2.92;;;15.40;57.60;;;;;;5156795;27;20417;-28
2023/09/15 08:34:42;;;;;;;7.95;2.80;;;15.50;72.20;;;;;;5157446;27;20058;-27
2023/09/15 08:37:08;;;;;;;7.90;3.10;;;15.60;77.70;;;;;;5157374;27;20039;-28
2023/09/15 08:39:34;;;;;;;10.85;3.75;;;15.80;1.00;;;;;;5157287;27;20043;-28
2023/09/15 08:42:04;;;;;;;10.30;3.30;;;15.90;1.00;;;;;;5156065;27;20046;-27
2023/09/15 08:44:32;;;;;;;8.40;2.50;;;16.00;1.00;;;;;;5157377;27;20472;-28
2023/09/15 08:47:00;;;;;;;4.60;2.67;;;16.10;1.00;;;;;;5157153;27;20046;-29
2023/09/15 08:49:27;;;;;;;5.35;2.70;;;16.20;99.90;;;;;;5157045;27;20103;-27
2023/09/15 08:51:55;;;;;;;6.47;2.75;;;16.30;1.00;;;;;;5157860;27;20384;-27
2023/09/15 08:54:21;;;;;;;11.73;3.30;;;16.40;99.90;;;;;;5156928;27;20085;-28
2023/09/15 08:56:47;;;;;;;7.60;2.17;;;16.50;99.90;;;;;;5155958;27;20042;-27
2023/09/15 08:59:16;;;;;;;8.40;2.72;;;16.60;1.00;;;;;;5156267;27;20054;-28
2023/09/15 09:01:42;;;;;;;6.22;2.00;;;16.80;1.00;;;;;;5155514;27;20054;-27
2023/09/15 09:04:08;;;;;;;7.57;2.55;;;17.00;1.00;;;;;;5156852;27;20472;-27
2023/09/15 09:06:35;;;;;;;4.47;2.42;;;17.30;1.00;;;;;;5156517;27;20060;-27
2023/09/15 09:09:02;;;;;;;6.55;2.40;;;18.10;99.90;;;;;;5156704;27;20076;-27
2023/09/15 09:11:28;;;;;;;6.45;2.30;;;19.40;84.80;;;;;;5155738;27;20051;-27
2023/09/15 09:13:54;;;;;;;5.28;1.63;;;20.60;99.90;;;;;;5156262;27;20042;-27
2023/09/15 09:16:21;;;;;;;4.80;1.92;;;21.40;1.00;;;;;;5156003;27;20065;-27
2023/09/15 09:19:00;;;;;;;6.03;1.95;;;22.00;99.90;;;;;;5138163;27;20134;-28
2023/09/15 09:21:30;;;;;;;4.85;2.00;;;22.00;99.90;;;;;;5156561;27;20079;-29
2023/09/15 09:23:57;;;;;;;6.43;2.70;;;22.20;66.40;;;;;;5156438;27;20393;-27
2023/09/15 09:26:23;;;;;;;9.65;3.28;;;22.50;1.00;;;;;;5156457;27;20121;-28
2023/09/15 09:28:56;;;;;;;6.47;2.50;;;22.80;1.00;;;;;;5138728;27;20459;-28
2023/09/15 09:31:26;;;;;;;7.20;2.40;;;23.00;1.00;;;;;;5156233;27;20053;-27
2023/09/15 09:33:53;;;;;;;9.15;3.42;;;23.10;1.00;;;;;;5156407;27;20421;-28
2023/09/15 09:36:19;;;;;;;8.57;2.53;;;23.60;99.90;;;;;;5156199;27;20089;-28
2023/09/15 09:38:46;;;;;;;6.60;2.25;;;23.70;99.90;;;;;;5157008;27;20107;-28
2023/09/15 09:41:13;;;;;;;6.30;2.72;;;24.00;99.90;;;;;;5156132;27;20495;-28
2023/09/15 09:43:41;;;;;;;3.72;2.40;;;24.00;1.00;;;;;;5154591;27;20514;-28
2023/09/15 09:46:08;;;;;;;7.47;2.80;;;24.30;1.00;;;;;;5155096;27;20039;-28
2023/09/15 09:48:39;;;;;;;5.45;2.08;;;24.20;1.00;;;;;;5155918;27;20039;-28
2023/09/15 09:51:08;;;;;;;5.45;2.20;;;24.20;1.00;;;;;;5154934;27;20058;-28
2023/09/15 09:53:35;;;;;;;7.70;2.35;;;24.10;1.00;;;;;;5156710;27;20039;-29
2023/09/15 09:56:03;;;;;;;7.72;2.88;;;24.40;1.00;;;;;;5155010;27;20095;-28
2023/09/15 09:58:29;;;;;;;7.03;2.35;;;24.30;99.90;;;;;;5156656;27;20050;-28
2023/09/15 10:00:55;;;;;;;5.63;2.67;;;24.70;99.90;;;;;;5155491;27;20565;-28
2023/09/15 10:03:23;;;;;;;7.25;2.60;;;24.80;99.90;;;;;;5155809;27;20072;-28
2023/09/15 10:05:49;;;;;;;6.15;2.75;;;24.90;99.90;;;;;;5155692;27;20050;-28
2023/09/15 10:08:15;;;;;;;7.38;2.75;;;24.90;99.90;;;;;;5155651;27;20082;-28
2023/09/15 10:10:44;;;;;;;6.35;2.88;;;25.30;99.90;;;;;;5155645;27;20042;-28
2023/09/15 10:13:16;;;;;;;5.22;2.60;;;25.30;99.90;;;;;;5155589;27;20043;-28
2023/09/15 10:15:42;;;;;;;;;;;25.70;99.90;;;;;;5156047;27;20130;-28
2023/09/15 10:18:13;;;;;;;4.93;2.58;;;25.40;99.90;;;;;;5155629;27;20287;-28
2023/09/15 10:20:44;;;;;;;7.13;3.20;;;25.40;99.90;;;;;;5156156;27;20050;-28
2023/09/15 10:23:13;;;;;;;5.90;2.95;;;25.20;99.90;;;;;;5154808;27;20400;-28
2023/09/15 10:25:53;;;;;;;6.72;2.70;;;25.40;99.90;;;;;;5156256;27;20082;-29
2023/09/15 10:28:22;;;;;;;5.88;3.00;;;25.70;99.90;;;;;;5155386;27;20042;-28
2023/09/15 10:30:58;;;;;;;8.57;2.85;;;25.70;99.90;;;;;;5137217;27;20057;-28
2023/09/15 10:33:28;;;;;;;5.05;2.67;;;25.80;99.90;;;;;;5155344;27;20047;-28
2023/09/15 10:36:03;;;;;;;5.32;2.95;;;25.60;99.90;;;;;;5155327;27;20042;-29
2023/09/15 10:38:29;;;;;;;7.90;2.92;;;25.70;99.90;;;;;;5155390;27;20043;-28
2023/09/15 10:40:58;;;;;;;5.18;2.63;;;25.90;99.90;;;;;;5155277;27;20046;-28
2023/09/15 10:43:24;;;;;;;6.10;2.55;;;25.60;99.90;;;;;;5138212;27;20069;-29
2023/09/15 10:45:57;;;;;;;7.63;2.83;;;26.00;99.90;;;;;;5154000;27;20043;-28
2023/09/15 10:48:44;;;;;;;4.63;2.65;;;26.10;99.90;;;;;;5155029;27;20038;-28
2023/09/15 10:51:11;;;;;;;5.35;2.65;;;26.40;99.90;;;;;;5155401;27;20452;-28
2023/09/15 10:53:43;;;;;;;4.07;2.53;;;26.60;99.90;;;;;;5154833;27;20492;-28
2023/09/15 10:56:09;;;;;;;5.07;2.33;;;26.50;99.90;;;;;;5157596;27;20050;-28
2023/09/15 10:58:36;;;;;;;5.20;2.65;;;26.30;99.90;;;;;;5141044;27;20095;-28
2023/09/15 11:01:03;;;;;;;5.15;2.33;;;25.90;99.90;;;;;;5159038;27;20047;-29
2023/09/15 11:03:29;;;;;;;6.10;2.53;;;25.90;99.90;;;;;;5159835;27;20050;-29
2023/09/15 11:05:56;;;;;;;3.60;2.22;;;25.00;99.90;;;;;;5159196;27;20095;-29
2023/09/15 11:08:24;;;;;;;5.65;2.55;;;24.10;99.90;;;;;;5159721;27;20070;-28
2023/09/15 11:11:02;;;;;;;6.28;2.50;;;24.60;99.90;;;;;;5159096;27;20039;-28
2023/09/15 11:13:28;;;;;;;7.15;2.58;;;24.90;99.90;;;;;;5158955;27;20075;-28
2023/09/15 11:15:54;;;;;;;6.50;2.85;;;25.40;99.90;;;;;;5158977;27;20050;-28
2023/09/15 11:18:19;;;;;;;7.72;2.70;;;25.90;99.90;;;;;;5158993;27;20038;-29
2023/09/15 11:20:45;;;;;;;4.85;2.42;;;26.60;99.90;;;;;;5159468;27;20371;-28
2023/09/15 11:23:11;;;;;;;5.40;2.00;;;26.90;99.90;;;;;;5158754;27;20035;-28
2023/09/15 11:25:37;;;;;;;4.40;2.05;;;27.30;1.00;;;;;;5158641;27;20127;-28
2023/09/15 11:28:09;;;;;;;4.45;2.20;;;27.20;1.00;;;;;;5158813;27;20050;-28
2023/09/15 11:30:36;;;;;;;6.45;2.72;;;27.20;1.00;;;;;;5159318;27;20187;-28
2023/09/15 11:33:05;;;;;;;5.72;2.25;;;27.10;1.00;;;;;;5159088;27;20042;-28
2023/09/15 11:35:30;;;;;;;6.38;2.63;;;25.70;99.90;;;;;;5159210;27;20042;-28
2023/09/15 11:37:56;;;;;;;5.63;2.22;;;25.50;99.90;;;;;;5158550;27;20194;-28
2023/09/15 11:40:23;;;;;;;5.75;2.38;;;25.50;99.90;;;;;;5158754;27;20121;-29
2023/09/15 11:42:56;;;;;;;5.60;2.17;;;25.50;99.90;;;;;;5158557;27;20125;-28
2023/09/15 11:45:26;;;;;;;8.55;2.42;;;25.50;99.90;;;;;;5159019;27;20046;-28
2023/09/15 11:47:54;;;;;;;6.85;2.70;;;25.20;99.90;;;;;;5158547;27;20078;-28
2023/09/15 11:50:20;;;;;;;6.45;2.20;;;25.10;99.90;;;;;;5157365;27;20125;-28
2023/09/15 11:52:46;;;;;;;4.97;2.20;;;25.50;99.90;;;;;;5158143;27;20034;-29
2023/09/15 11:55:20;;;;;;;4.93;2.20;;;26.20;1.00;;;;;;5158246;27;20126;-28
2023/09/15 11:57:46;;;;;;;5.70;2.22;;;26.90;1.00;;;;;;5158216;27;20046;-29
2023/09/15 12:00:20;;;;;;;4.65;2.55;;;27.20;1.00;;;;;;5158139;27;20042;-28
2023/09/15 12:02:47;;;;;;;6.07;2.10;;;27.30;1.00;;;;;;5156788;27;20058;-29
2023/09/15 12:05:18;;;;;;;7.07;2.25;;;27.40;1.00;;;;;;5158603;27;20047;-29
2023/09/15 12:07:45;;;;;;;5.57;2.80;;;26.10;99.90;;;;;;5157755;27;20043;-31
2023/09/15 12:10:15;;;;;;;6.25;2.45;;;25.60;99.90;;;;;;5156743;27;20608;-28
2023/09/15 12:12:41;;;;;;;6.30;2.28;;;25.80;99.90;;;;;;5157815;27;20404;-28
2023/09/15 12:15:08;;;;;;;7.78;2.65;;;26.20;99.90;;;;;;5157895;27;20049;-28
2023/09/15 12:17:34;;;;;;;3.53;1.77;;;26.40;99.90;;;;;;5157827;27;20050;-29
2023/09/15 12:20:07;;;;;;;3.28;1.92;;;26.50;99.90;;;;;;5157432;27;20496;-28
2023/09/15 12:22:38;;;;;;;5.32;2.30;;;27.20;1.00;;;;;;5157303;27;20358;-29
2023/09/15 12:25:05;;;;;;;7.68;2.63;;;27.80;1.00;;;;;;5157021;27;20054;-28
2023/09/15 12:27:32;;;;;;;6.32;2.65;;;28.10;11.20;;;;;;5157598;27;20047;-29
2023/09/15 12:30:02;;;;;;;4.03;1.98;;;28.30;19.80;;;;;;5156295;27;20051;-29
2023/09/15 12:32:30;;;;;;;4.03;1.80;;;28.50;64.70;;;;;;5157476;27;20488;-30
2023/09/15 12:34:57;;;;;;;4.43;2.20;;;28.50;76.60;;;;;;5158032;27;20396;-29
2023/09/15 12:37:26;;;;;;;7.65;2.25;;;28.20;67.80;;;;;;5158044;27;20079;-29
2023/09/15 12:39:52;;;;;;;5.38;2.03;;;28.20;70.50;;;;;;5157319;27;20046;-29
2023/09/15 12:42:18;;;;;;;4.57;1.90;;;28.40;84.70;;;;;;5157242;27;20047;-29
2023/09/15 12:44:44;;;;;;;3.60;1.67;;;28.50;90.80;;;;;;5157222;27;20047;-28
2023/09/15 12:47:10;;;;;;;6.53;1.90;;;28.10;89.40;;;;;;5157100;27;20042;-29
2023/09/15 12:49:37;;;;;;;3.70;1.77;;;28.30;96.80;;;;;;5157670;27;20038;-28